Terminal Aerodrome Forecast
Issued by NWS Omaha/Valley, NE

Home | Current Version | Previous Version | Graphics & Text | Print | Product List | Glossary On
Versions: 1 2 3 4 5 6 7 8 9 10 11 12 13 14 15 16 17 18 19 20
000
FTUS43 KOAX 241140
TAFOFK
TAF
KOFK 241140Z 2412/2512 11004KT P6SM OVC100
     FM241500 32010KT P6SM OVC080
      TEMPO 2415/2418 33012G18KT
     FM241800 34009KT P6SM VCSH OVC050
      TEMPO 2420/2424 4SM -SHRA OVC025
     FM250000 36008KT 4SM -SHRA OVC015=

USA.gov is the U.S. government's official web portal to all federal, state and local government web resources and services.